Capitol Logistics 978


HKJK
Jomo Kenyatta International Airport
Nairobi, KE
HTZA
Abeid Amani Karume International Airport
Zanzibar, TZ

Activity Log

Date Flight Route Aircraft Duration
09/04/2020 CPX978 Not Available B763 1h 11m
03/30/2020 CPX978 STON1D GABSO GABSO UT913 EGPET B763 1h 15m
12/19/2019 CPX978 ATUD1D UVOVA GABSO UL445 GEREN B763 1h 12m
11/12/2019 CPX978 Not Available B763 1h 01m

Route Details

Aircraft Information
Primary: Boeing 767-300BDSF
Backup: Not Available
Route Data
Distance: 323nm
Sched. Duration: 0h 45m
Avg. Duration: 1h 10m (+65m)
Times Flown: 4
Recm'd Route: Not Available
Planned Altitude: 31,000ft
Origin Wx:
Dest. Wx: HTZA 291800Z 12005KT 9999 FEW018 26/23 Q1014 NOSIG
Notes:

Financial History
Total Freight: 342,289lbs
Average Load: 85,572lbs/flt
Fuel Used: 44,839lbs
Avg. Fuel Used: 11,210lbs/flt
Fuel Expense: $37,665
Avg. Fuel Expense: $9,416
Avg. Fuel Cost: $0.84/lbs
Total Gross Income: $3,361,278
Pilot Pay: $806
Total Expenses: $363,226
Total Revenue: $2,959,425
Average Revenue: $840,319.49